createdAt,value
2023-05-10T00:00:18.984Z,59.46
2023-05-10T00:02:45.887Z,59.89
2023-05-10T00:05:46.727Z,59.57
2023-05-10T00:08:13.371Z,58.51
2023-05-10T00:10:40.037Z,59.11
2023-05-10T00:13:06.690Z,59.02
2023-05-10T00:18:24.381Z,58.69
2023-05-10T00:20:51.210Z,58.29
2023-05-10T00:23:17.892Z,59.23
2023-05-10T00:25:44.520Z,58.60
2023-05-10T00:28:11.116Z,58.18
2023-05-10T00:30:37.961Z,58.30
2023-05-10T00:33:04.818Z,58.20
2023-05-10T00:35:31.677Z,59.04
2023-05-10T00:37:58.259Z,58.85
2023-05-10T00:40:25.004Z,58.86
2023-05-10T00:42:51.606Z,58.51
2023-05-10T00:45:18.514Z,57.83
2023-05-10T00:47:45.180Z,57.66
2023-05-10T00:50:11.806Z,58.15
2023-05-10T00:52:38.433Z,57.71
2023-05-10T00:55:05.572Z,57.93
2023-05-10T00:57:32.190Z,57.80
2023-05-10T00:59:59.021Z,58.20
2023-05-10T01:02:25.987Z,58.28
2023-05-10T01:04:53.008Z,58.29
2023-05-10T01:07:19.870Z,58.72
2023-05-10T01:09:46.631Z,58.73
2023-05-10T01:12:13.279Z,58.79
2023-05-10T01:14:39.995Z,59.19
2023-05-10T01:17:07.223Z,59.14
2023-05-10T01:19:35.904Z,58.95
2023-05-10T01:22:17.610Z,59.57
2023-05-10T01:25:07.731Z,59.64
2023-05-10T01:27:55.667Z,59.42
2023-05-10T01:30:28.289Z,60.01
2023-05-10T01:33:22.907Z,60.10
2023-05-10T01:36:05.288Z,59.89
2023-05-10T01:38:51.528Z,60.02
2023-05-10T01:41:29.243Z,60.01
2023-05-10T01:44:02.286Z,60.24
2023-05-10T01:46:34.130Z,60.22
2023-05-10T01:49:01.062Z,61.10
2023-05-10T01:51:30.393Z,61.85
2023-05-10T01:54:00.411Z,61.96
2023-05-10T01:56:27.654Z,61.59
2023-05-10T01:58:54.321Z,61.74
2023-05-10T02:01:21.830Z,61.87
2023-05-10T02:03:49.071Z,61.56
2023-05-10T02:06:15.894Z,61.59
2023-05-10T02:08:42.653Z,61.25
2023-05-10T02:11:09.251Z,61.16
2023-05-10T02:13:35.865Z,61.09
2023-05-10T02:16:02.471Z,61.82
2023-05-10T02:18:29.256Z,61.57
2023-05-10T02:20:56.131Z,61.65
2023-05-10T02:23:22.707Z,61.68
2023-05-10T02:25:49.383Z,61.38
2023-05-10T02:28:16.105Z,61.24
2023-05-10T02:30:43.064Z,61.57
2023-05-10T02:33:09.692Z,61.44
2023-05-10T02:35:36.345Z,61.43
2023-05-10T02:38:03.067Z,62.26
2023-05-10T02:40:29.731Z,62.22
2023-05-10T02:42:57.389Z,61.60
2023-05-10T02:45:25.933Z,61.99
2023-05-10T02:47:52.572Z,62.04
2023-05-10T02:50:19.953Z,62.28
2023-05-10T02:52:53.091Z,61.61
2023-05-10T02:55:21.021Z,62.11
2023-05-10T02:57:51.353Z,61.69
2023-05-10T03:00:18.490Z,61.73
2023-05-10T03:02:45.526Z,61.75
2023-05-10T03:05:12.372Z,62.53
2023-05-10T03:07:39.011Z,62.15
2023-05-10T03:10:06.444Z,62.59
2023-05-10T03:12:35.112Z,63.07
2023-05-10T03:15:22.499Z,62.97
2023-05-10T03:18:11.712Z,62.42
2023-05-10T03:20:49.547Z,62.88
2023-05-10T03:23:19.255Z,63.04
2023-05-10T03:25:46.334Z,62.68
2023-05-10T03:28:13.101Z,62.94
2023-05-10T03:30:39.689Z,63.38
2023-05-10T03:33:07.350Z,62.63
2023-05-10T03:35:34.108Z,62.83
2023-05-10T03:38:01.211Z,62.56
2023-05-10T03:40:30.076Z,63.38
2023-05-10T03:42:56.781Z,62.77
2023-05-10T03:45:23.791Z,62.96
2023-05-10T03:47:50.422Z,62.98
2023-05-10T03:50:17.302Z,62.64
2023-05-10T03:52:44.627Z,62.40
2023-05-10T03:55:11.504Z,62.20
2023-05-10T03:57:38.258Z,61.97
2023-05-10T04:00:05.375Z,62.28
2023-05-10T04:02:32.071Z,62.87
2023-05-10T04:04:59.070Z,62.47
2023-05-10T04:07:25.670Z,62.34
2023-05-10T04:09:52.456Z,62.00
2023-05-10T04:12:19.107Z,62.09
2023-05-10T04:14:45.792Z,62.35
2023-05-10T04:17:12.453Z,62.14
2023-05-10T04:19:39.372Z,62.03
2023-05-10T04:22:05.991Z,62.06
2023-05-10T04:24:32.608Z,61.69
2023-05-10T04:26:59.231Z,61.82
2023-05-10T04:29:25.866Z,61.09
2023-05-10T04:31:52.518Z,61.17
2023-05-10T04:34:19.640Z,61.65
2023-05-10T04:36:46.237Z,61.46
2023-05-10T04:39:12.956Z,61.21
2023-05-10T04:41:39.734Z,61.18
2023-05-10T04:44:06.385Z,60.39
2023-05-10T04:46:33.142Z,59.00
2023-05-10T04:48:59.875Z,58.10
2023-05-10T04:51:26.482Z,57.70
2023-05-10T04:54:05.345Z,55.40
2023-05-10T04:56:32.984Z,51.00
2023-05-10T04:58:59.565Z,50.59
2023-05-10T05:01:26.224Z,46.87
2023-05-10T05:03:54.085Z,41.87
2023-05-10T05:06:22.265Z,39.33
2023-05-10T05:08:50.532Z,36.57
2023-05-10T05:11:17.811Z,32.08
2023-05-10T05:13:44.608Z,32.13
2023-05-10T05:16:12.278Z,29.44
2023-05-10T05:18:39.248Z,27.18
2023-05-10T05:21:17.905Z,26.21
2023-05-10T05:23:44.610Z,26.37
2023-05-10T05:26:11.735Z,24.86
2023-05-10T05:28:38.829Z,23.98
2023-05-10T05:31:06.752Z,23.29
2023-05-10T05:33:33.459Z,23.06
2023-05-10T05:36:06.957Z,21.64
2023-05-10T05:38:33.633Z,22.22
2023-05-10T05:41:00.313Z,21.62
2023-05-10T05:43:26.979Z,20.71
2023-05-10T05:45:54.735Z,20.22
2023-05-10T05:48:21.706Z,20.05
2023-05-10T05:50:48.490Z,19.47
2023-05-10T05:53:15.225Z,19.92
2023-05-10T05:55:41.866Z,18.90
2023-05-10T05:58:08.474Z,18.95
2023-05-10T06:00:35.290Z,18.57
2023-05-10T06:03:02.139Z,18.06
2023-05-10T06:05:28.921Z,17.50
2023-05-10T06:07:55.531Z,17.52
2023-05-10T06:10:22.170Z,17.28
2023-05-10T06:12:48.825Z,16.63
2023-05-10T06:15:15.632Z,16.98
2023-05-10T06:17:42.459Z,16.33
2023-05-10T06:20:09.774Z,16.14
2023-05-10T06:22:36.516Z,15.94
2023-05-10T06:25:03.638Z,14.94
2023-05-10T06:27:30.257Z,15.15
2023-05-10T06:30:09.281Z,14.79
2023-05-10T06:32:39.532Z,15.17
2023-05-10T06:35:06.714Z,14.76
2023-05-10T06:37:33.394Z,14.59
2023-05-10T06:40:00.044Z,14.87
2023-05-10T06:42:26.686Z,14.35
2023-05-10T06:44:53.303Z,14.58
2023-05-10T06:47:19.939Z,14.49
2023-05-10T06:49:46.579Z,13.61
2023-05-10T06:52:13.300Z,14.00
2023-05-10T06:54:39.932Z,14.63
2023-05-10T06:57:16.149Z,14.49
2023-05-10T06:59:50.335Z,14.42
2023-05-10T07:02:17.642Z,14.42
2023-05-10T07:04:44.388Z,14.98
2023-05-10T07:07:11.127Z,15.80
2023-05-10T07:09:37.724Z,15.87
2023-05-10T07:12:04.796Z,15.99
2023-05-10T07:14:31.467Z,16.20
2023-05-10T07:16:58.128Z,17.73
2023-05-10T07:19:24.854Z,19.16
2023-05-10T07:21:51.879Z,19.92
2023-05-10T07:24:18.700Z,20.99
2023-05-10T07:26:45.296Z,21.84
2023-05-10T07:29:11.913Z,23.27
2023-05-10T07:31:38.759Z,24.83
2023-05-10T07:34:05.755Z,26.03
2023-05-10T07:36:32.359Z,27.11
2023-05-10T07:38:58.970Z,28.93
2023-05-10T07:41:25.601Z,30.91
2023-05-10T07:43:52.504Z,31.59
2023-05-10T07:46:20.478Z,33.50
2023-05-10T07:48:47.203Z,33.55
2023-05-10T07:51:13.816Z,34.19
2023-05-10T07:53:40.442Z,34.04
2023-05-10T07:56:30.668Z,34.79
2023-05-10T07:58:57.468Z,35.31
2023-05-10T08:01:24.307Z,35.02
2023-05-10T08:03:52.178Z,35.47
2023-05-10T08:06:19.419Z,35.37
2023-05-10T08:08:51.333Z,35.41
2023-05-10T08:11:18.574Z,35.10
2023-05-10T08:13:46.092Z,36.01
2023-05-10T08:16:12.881Z,34.79
2023-05-10T08:18:39.926Z,35.54
2023-05-10T08:21:06.666Z,35.87
2023-05-10T08:23:33.323Z,35.35
2023-05-10T08:26:00.482Z,35.05
2023-05-10T08:28:27.220Z,35.75
2023-05-10T08:30:53.841Z,36.26
2023-05-10T08:33:20.765Z,36.39
2023-05-10T08:35:47.561Z,35.41
2023-05-10T08:38:16.986Z,36.29
2023-05-10T08:40:44.532Z,36.30
2023-05-10T08:43:12.763Z,36.83
2023-05-10T08:45:42.529Z,35.08
2023-05-10T08:48:10.367Z,33.96
2023-05-10T08:50:40.917Z,35.13
2023-05-10T08:53:11.744Z,34.54
2023-05-10T08:55:39.700Z,34.92
2023-05-10T08:58:06.934Z,34.92
2023-05-10T09:00:33.769Z,35.65
2023-05-10T09:03:00.870Z,34.17
2023-05-10T09:05:27.712Z,34.71
2023-05-10T09:07:54.404Z,35.49
2023-05-10T09:10:21.440Z,34.50
2023-05-10T09:12:48.856Z,34.63
2023-05-10T09:15:21.043Z,34.76
2023-05-10T09:17:47.737Z,34.45
2023-05-10T09:20:14.806Z,33.74
2023-05-10T09:22:41.916Z,34.75
2023-05-10T09:25:09.115Z,36.27
2023-05-10T09:27:36.798Z,34.73
2023-05-10T09:30:04.547Z,34.18
2023-05-10T09:32:41.649Z,34.12
2023-05-10T09:35:12.971Z,35.11
2023-05-10T09:37:50.933Z,35.01
2023-05-10T09:40:25.283Z,33.58
2023-05-10T09:42:54.196Z,33.20
2023-05-10T09:45:21.108Z,34.34
2023-05-10T09:47:48.064Z,33.49
2023-05-10T09:50:14.706Z,35.24
2023-05-10T09:53:01.040Z,34.66
2023-05-10T09:55:42.589Z,34.64
2023-05-10T09:58:11.775Z,34.98
2023-05-10T10:00:42.997Z,33.75
2023-05-10T10:03:16.896Z,33.70
2023-05-10T10:05:44.584Z,34.21
2023-05-10T10:08:11.651Z,37.91
2023-05-10T10:10:39.825Z,34.53
2023-05-10T10:13:06.434Z,33.50
2023-05-10T10:15:34.004Z,34.75
2023-05-10T10:18:01.239Z,37.43
2023-05-10T10:20:28.852Z,35.79
2023-05-10T10:22:55.488Z,35.34
2023-05-10T10:25:24.984Z,37.13
2023-05-10T10:27:54.663Z,35.18
2023-05-10T10:30:44.883Z,35.42
2023-05-10T10:33:27.273Z,34.91
2023-05-10T10:35:54.504Z,33.43
2023-05-10T10:38:21.527Z,34.08
2023-05-10T10:41:35.894Z,35.62
2023-05-10T10:44:21.226Z,35.96
2023-05-10T10:47:26.090Z,37.10
2023-05-10T10:49:54.388Z,35.70
2023-05-10T10:52:34.500Z,35.54
2023-05-10T10:55:02.368Z,33.86
2023-05-10T10:57:31.377Z,36.75
2023-05-10T11:00:28.059Z,33.94
2023-05-10T11:03:09.720Z,33.65
2023-05-10T11:05:43.556Z,34.21
2023-05-10T11:08:27.100Z,35.52
2023-05-10T11:10:59.876Z,36.05
2023-05-10T11:13:41.465Z,36.18
2023-05-10T11:16:26.577Z,34.44
2023-05-10T11:19:04.040Z,33.58
2023-05-10T11:21:34.496Z,35.15
2023-05-10T11:24:01.915Z,35.00
2023-05-10T11:26:35.933Z,33.30
2023-05-10T11:29:03.106Z,33.50
2023-05-10T11:31:29.928Z,34.75
2023-05-10T11:33:57.979Z,34.12
2023-05-10T11:36:26.955Z,34.50
2023-05-10T11:38:53.759Z,34.24
2023-05-10T11:41:22.848Z,34.21
2023-05-10T11:43:55.465Z,35.23
2023-05-10T11:46:24.012Z,35.60
2023-05-10T11:48:52.022Z,35.60
2023-05-10T11:51:25.689Z,37.52
2023-05-10T11:53:54.176Z,34.29
2023-05-10T11:56:22.734Z,33.88
2023-05-10T11:58:57.035Z,34.58
2023-05-10T12:01:24.471Z,34.34
2023-05-10T12:03:51.586Z,35.14
2023-05-10T12:06:19.688Z,35.70
2023-05-10T12:08:53.636Z,35.55
2023-05-10T12:11:22.159Z,36.01
2023-05-10T12:13:49.041Z,38.52
2023-05-10T12:16:20.832Z,37.09
2023-05-10T12:18:54.559Z,36.83
2023-05-10T12:21:21.718Z,36.45
2023-05-10T12:23:53.891Z,35.08
2023-05-10T12:26:24.250Z,34.37
2023-05-10T12:28:50.894Z,35.64
2023-05-10T12:31:17.795Z,35.31
2023-05-10T12:33:44.675Z,35.16
2023-05-10T12:36:12.163Z,36.21
2023-05-10T12:38:40.115Z,33.99
2023-05-10T12:41:08.503Z,34.37
2023-05-10T12:43:35.425Z,34.17
2023-05-10T12:46:15.410Z,34.69
2023-05-10T12:48:42.817Z,35.03
2023-05-10T12:51:10.692Z,34.29
2023-05-10T12:53:37.775Z,33.49
2023-05-10T12:56:04.687Z,34.68
2023-05-10T12:58:35.964Z,34.48
2023-05-10T13:01:03.351Z,34.72
2023-05-10T13:03:30.157Z,34.55
2023-05-10T13:05:56.811Z,34.90
2023-05-10T13:08:23.484Z,34.95
2023-05-10T13:10:50.136Z,34.08
2023-05-10T13:13:16.811Z,34.59
2023-05-10T13:15:43.605Z,34.49
2023-05-10T13:18:10.711Z,33.56
2023-05-10T13:20:37.509Z,34.30
2023-05-10T13:23:04.178Z,34.21
2023-05-10T13:25:31.072Z,34.51
2023-05-10T13:27:57.780Z,34.36
2023-05-10T13:30:25.242Z,35.42
2023-05-10T13:32:51.907Z,34.37
2023-05-10T13:35:18.595Z,34.07
2023-05-10T13:37:45.264Z,34.34
2023-05-10T13:40:12.053Z,34.98
2023-05-10T13:42:38.721Z,35.67
2023-05-10T13:45:06.068Z,36.63
2023-05-10T13:47:32.799Z,37.18
2023-05-10T13:49:59.503Z,36.55
2023-05-10T13:52:26.941Z,38.30
2023-05-10T13:54:55.982Z,36.03
2023-05-10T13:57:23.208Z,36.77
2023-05-10T13:59:50.001Z,35.38
2023-05-10T14:02:16.694Z,34.75
2023-05-10T14:04:43.357Z,35.09
2023-05-10T14:07:10.064Z,35.40
2023-05-10T14:09:37.122Z,36.28
2023-05-10T14:12:03.911Z,35.46
2023-05-10T14:14:30.535Z,36.14
2023-05-10T14:16:57.254Z,35.78
2023-05-10T14:19:23.925Z,36.24
2023-05-10T14:21:50.539Z,36.81
2023-05-10T14:24:17.153Z,36.92
2023-05-10T14:26:43.770Z,37.02
2023-05-10T14:29:12.482Z,38.29
2023-05-10T14:31:39.593Z,39.33
2023-05-10T14:34:06.837Z,37.43
2023-05-10T14:36:33.655Z,36.87
2023-05-10T14:39:00.355Z,37.00
2023-05-10T14:41:27.048Z,38.38
2023-05-10T14:43:54.117Z,37.24
2023-05-10T14:46:20.909Z,37.02
2023-05-10T14:48:47.803Z,36.40
2023-05-10T14:51:14.688Z,37.71
2023-05-10T14:53:41.292Z,37.42
2023-05-10T14:56:08.113Z,37.96
2023-05-10T14:58:34.867Z,36.63
2023-05-10T15:01:01.984Z,36.18
2023-05-10T15:03:29.317Z,36.99
2023-05-10T15:05:58.645Z,36.36
2023-05-10T15:08:28.789Z,36.86
2023-05-10T15:10:56.930Z,37.48
2023-05-10T15:13:23.591Z,37.76
2023-05-10T15:15:50.270Z,37.71
2023-05-10T15:18:17.433Z,37.50
2023-05-10T15:20:44.178Z,37.24
2023-05-10T15:23:10.821Z,36.95
2023-05-10T15:25:38.507Z,36.99
2023-05-10T15:28:05.258Z,38.74
2023-05-10T15:30:32.041Z,39.64
2023-05-10T15:32:59.101Z,38.58
2023-05-10T15:35:27.082Z,38.33
2023-05-10T15:37:53.863Z,37.76
2023-05-10T15:40:20.620Z,39.32
2023-05-10T15:42:47.265Z,37.47
2023-05-10T15:45:13.952Z,37.53
2023-05-10T15:47:40.735Z,37.73
2023-05-10T15:50:08.397Z,37.20
2023-05-10T15:52:35.221Z,37.94
2023-05-10T15:55:01.889Z,37.66
2023-05-10T15:57:28.539Z,38.13
2023-05-10T15:59:56.361Z,39.08
2023-05-10T16:02:23.510Z,39.07
2023-05-10T16:04:50.369Z,38.06
2023-05-10T16:07:17.046Z,38.17
2023-05-10T16:09:44.090Z,37.76
2023-05-10T16:12:10.841Z,38.12
2023-05-10T16:14:37.456Z,38.54
2023-05-10T16:17:04.765Z,37.94
2023-05-10T16:19:32.909Z,38.12
2023-05-10T16:21:59.604Z,38.26
2023-05-10T16:24:26.384Z,38.70
2023-05-10T16:26:53.265Z,40.00
2023-05-10T16:29:19.873Z,38.12
2023-05-10T16:31:46.993Z,37.73
2023-05-10T16:34:13.684Z,38.89
2023-05-10T16:36:40.462Z,39.02
2023-05-10T16:39:07.103Z,37.89
2023-05-10T16:41:34.725Z,39.30
2023-05-10T16:44:01.966Z,40.43
2023-05-10T16:46:28.898Z,38.52
2023-05-10T16:48:56.049Z,38.52
2023-05-10T16:51:22.686Z,37.90
2023-05-10T16:53:49.783Z,38.20
2023-05-10T16:56:18.371Z,39.07
2023-05-10T16:58:44.970Z,38.59
2023-05-10T17:01:11.602Z,38.49
2023-05-10T17:03:38.405Z,38.52
2023-05-10T17:06:06.105Z,39.19
2023-05-10T17:08:33.453Z,39.72
2023-05-10T17:11:04.036Z,40.38
2023-05-10T17:13:30.728Z,41.89
2023-05-10T17:15:57.482Z,42.95
2023-05-10T17:18:24.249Z,41.91
2023-05-10T17:20:51.147Z,43.16
2023-05-10T17:23:17.767Z,43.51
2023-05-10T17:25:44.716Z,43.07
2023-05-10T17:28:11.471Z,43.25
2023-05-10T17:30:38.198Z,43.55
2023-05-10T17:33:05.068Z,45.44
2023-05-10T17:35:32.001Z,45.24
2023-05-10T17:37:58.693Z,44.95
2023-05-10T17:40:25.566Z,46.95
2023-05-10T17:42:52.625Z,47.02
2023-05-10T17:45:19.655Z,47.74
2023-05-10T17:47:46.566Z,47.49
2023-05-10T17:50:13.194Z,47.18
2023-05-10T17:52:39.952Z,47.77
2023-05-10T17:55:07.209Z,49.84
2023-05-10T17:57:34.104Z,49.34
2023-05-10T18:00:02.287Z,50.28
2023-05-10T18:02:29.083Z,49.15
2023-05-10T18:04:57.594Z,49.12
2023-05-10T18:07:27.189Z,49.73
2023-05-10T18:09:53.799Z,49.16
2023-05-10T18:12:20.451Z,50.69
2023-05-10T18:14:47.232Z,50.30
2023-05-10T18:17:13.875Z,50.14
2023-05-10T18:19:40.594Z,50.08
2023-05-10T18:22:10.512Z,50.81
2023-05-10T18:24:39.596Z,50.53
2023-05-10T18:27:08.274Z,51.04
2023-05-10T18:29:35.395Z,50.32
2023-05-10T18:32:02.111Z,51.94
2023-05-10T18:34:28.936Z,51.58
2023-05-10T18:36:55.898Z,51.89
2023-05-10T18:39:22.539Z,52.21
2023-05-10T18:41:50.401Z,52.19
2023-05-10T18:44:17.288Z,52.19
2023-05-10T18:46:44.055Z,52.53
2023-05-10T18:49:10.896Z,52.73
2023-05-10T18:51:37.536Z,52.62
2023-05-10T18:54:04.541Z,53.84
2023-05-10T18:56:31.542Z,54.63
2023-05-10T18:58:58.188Z,54.44
2023-05-10T19:01:24.920Z,54.09
2023-05-10T19:03:51.605Z,54.05
2023-05-10T19:06:18.442Z,54.19
2023-05-10T19:08:45.112Z,54.47
2023-05-10T19:11:12.102Z,54.71
2023-05-10T19:13:38.785Z,54.95
2023-05-10T19:16:13.694Z,54.69
2023-05-10T19:18:40.426Z,56.29
2023-05-10T19:21:09.846Z,55.64
2023-05-10T19:23:41.767Z,56.54
2023-05-10T19:26:10.926Z,55.97
2023-05-10T19:28:37.794Z,57.58
2023-05-10T19:31:06.053Z,57.19
2023-05-10T19:33:32.801Z,56.88
2023-05-10T19:35:59.666Z,56.98
2023-05-10T19:38:26.445Z,57.31
2023-05-10T19:40:58.147Z,57.94
2023-05-10T19:43:29.540Z,57.53
2023-05-10T19:46:00.686Z,57.93
2023-05-10T19:48:27.602Z,58.32
2023-05-10T19:50:54.497Z,58.53
2023-05-10T19:53:21.140Z,58.02
2023-05-10T19:55:48.710Z,59.04
2023-05-10T19:58:15.376Z,59.45
2023-05-10T20:00:42.040Z,58.84
2023-05-10T20:03:09.475Z,58.96
2023-05-10T20:05:36.190Z,59.39
2023-05-10T20:08:02.845Z,59.13
2023-05-10T20:10:29.597Z,59.74
2023-05-10T20:12:56.397Z,60.58
2023-05-10T20:15:23.334Z,60.86
2023-05-10T20:17:54.026Z,61.05
2023-05-10T20:20:21.416Z,61.77
2023-05-10T20:22:48.460Z,61.07
2023-05-10T20:25:16.505Z,61.04
2023-05-10T20:27:43.327Z,61.01
2023-05-10T20:30:10.520Z,61.47
2023-05-10T20:32:37.304Z,61.67
2023-05-10T20:35:04.335Z,61.13
2023-05-10T20:37:31.060Z,61.30
2023-05-10T20:39:57.687Z,61.50
2023-05-10T20:42:24.334Z,61.82
2023-05-10T20:44:51.124Z,61.89
2023-05-10T20:47:18.107Z,61.41
2023-05-10T20:49:44.744Z,61.40
2023-05-10T20:52:11.366Z,61.23
2023-05-10T20:54:38.061Z,61.34
2023-05-10T20:57:04.837Z,61.20
2023-05-10T20:59:31.420Z,61.55
2023-05-10T21:01:58.160Z,61.44
2023-05-10T21:04:25.933Z,61.48
2023-05-10T21:06:53.299Z,62.06
2023-05-10T21:09:20.029Z,61.78
2023-05-10T21:11:46.666Z,61.92
2023-05-10T21:14:13.510Z,62.08
2023-05-10T21:16:40.182Z,62.14
2023-05-10T21:19:07.588Z,62.33
2023-05-10T21:21:34.428Z,62.08
2023-05-10T21:24:01.086Z,61.70
2023-05-10T21:26:27.803Z,61.98
2023-05-10T21:28:54.664Z,62.24
2023-05-10T21:31:21.424Z,62.30
2023-05-10T21:33:48.154Z,62.09
2023-05-10T21:36:15.025Z,62.16
2023-05-10T21:38:44.289Z,62.61
2023-05-10T21:41:11.098Z,62.59
2023-05-10T21:43:37.759Z,62.50
2023-05-10T21:46:04.751Z,63.36
2023-05-10T21:48:31.461Z,63.11
2023-05-10T21:50:58.107Z,63.34
2023-05-10T21:53:24.726Z,63.23
2023-05-10T21:55:51.404Z,63.49
2023-05-10T21:58:18.155Z,63.41
2023-05-10T22:00:44.788Z,63.34
2023-05-10T22:03:11.615Z,63.55
2023-05-10T22:05:38.708Z,63.23
2023-05-10T22:08:06.227Z,63.51
2023-05-10T22:10:33.066Z,63.46
2023-05-10T22:13:00.202Z,63.50
2023-05-10T22:15:27.212Z,63.50
2023-05-10T22:17:54.181Z,63.88
2023-05-10T22:20:21.343Z,63.61
2023-05-10T22:22:47.970Z,63.48
2023-05-10T22:25:14.658Z,64.00
2023-05-10T22:27:41.475Z,63.93
2023-05-10T22:30:08.807Z,63.77
2023-05-10T22:32:35.500Z,63.71
2023-05-10T22:35:02.387Z,63.77
2023-05-10T22:37:28.983Z,63.95
2023-05-10T22:39:55.759Z,63.99
2023-05-10T22:42:22.356Z,64.07
2023-05-10T22:44:49.100Z,64.14
2023-05-10T22:47:16.501Z,64.25
2023-05-10T22:49:43.153Z,63.95
2023-05-10T22:52:09.855Z,64.31
2023-05-10T22:54:36.609Z,64.20
2023-05-10T22:57:03.244Z,64.27
2023-05-10T22:59:29.913Z,64.27
2023-05-10T23:01:56.755Z,64.49
2023-05-10T23:04:23.434Z,64.29
2023-05-10T23:06:50.032Z,64.12
2023-05-10T23:09:16.687Z,64.50
2023-05-10T23:11:43.304Z,64.34
2023-05-10T23:14:09.968Z,64.13
2023-05-10T23:16:36.818Z,64.22
2023-05-10T23:19:03.536Z,64.54
2023-05-10T23:21:32.221Z,64.37
2023-05-10T23:23:59.100Z,64.42
2023-05-10T23:26:25.750Z,64.11
2023-05-10T23:28:52.492Z,63.95
2023-05-10T23:31:19.266Z,64.27
2023-05-10T23:33:45.964Z,64.27
2023-05-10T23:36:12.562Z,64.17
2023-05-10T23:38:39.497Z,64.28
2023-05-10T23:41:06.248Z,64.36
2023-05-10T23:43:32.886Z,63.94
2023-05-10T23:45:59.677Z,63.85
2023-05-10T23:48:26.422Z,63.98
2023-05-10T23:50:53.134Z,63.98
2023-05-10T23:53:19.833Z,63.94
2023-05-10T23:55:46.462Z,63.94
2023-05-10T23:58:13.079Z,64.05
